• Join FlightAware (Why Join?)
  • Login
  • US Flag 
04:34PM EDT


 

Airport Tracker/Info


-or-


 

Live Flight TrackerFlight Track Log ✈ N721CT ✈ 07-May-2013 ✈ KADS - KRVS

Flight Track Log - Related Links

Times and Time Zones

All times are in EDT time to prevent confusion due to time zone crossing. See the N721CT flight status page for this flight to view local times or setup timezone preferences in your user account.

Time Position Orientation Groundspeed Altitude Reporting Facility
EDT Latitude Longitude Course Direction KTS MPH feet Rate Location/Type
12:32PM 32.9722 -96.8355 13° North  Level Estimated
12:33PM 33.0037 -96.8271 13° North  Level Estimated
12:34PM 33.0351 -96.8187 13° North  Level Estimated
12:35PM 33.0883 -96.7995 17° North  Level FlightAware Approximate
12:36PM 33.1426 -96.7850 12° North  Level Estimated
12:37PM 33.1968 -96.7701 13° North  Level FlightAware Approximate
12:38PM 33.2510 -96.7551 13° North  Level FlightAware Approximate
12:39PM 33.3052 -96.7401 13° North  Level FlightAware Approximate
12:40PM 33.3588 -96.7253 13° North  Level FlightAware Approximate
12:41PM 33.4125 -96.7104 13° North  Level FlightAware Approximate
12:42PM 33.4661 -96.6955 13° North  Level FlightAware Approximate
12:43PM 33.5197 -96.6805 13° North  Level FlightAware Approximate
12:44PM 33.5733 -96.6654 13° North  Level FlightAware Approximate
12:45PM 33.6268 -96.6504 13° North  Level FlightAware Approximate
12:46PM 33.6802 -96.6354 13° North  Level FlightAware Approximate
12:47PM 33.7337 -96.6203 13° North  Level FlightAware Approximate
12:48PM 33.7872 -96.6052 13° North  Level FlightAware Approximate
12:49PM 33.8407 -96.5901 13° North  Level FlightAware Approximate
12:50PM 33.8932 -96.5753 13° North  Level FlightAware Approximate
12:51PM 33.9456 -96.5604 13° North  Level FlightAware Approximate
12:52PM 33.9981 -96.5456 13° North  Level FlightAware Approximate
12:53PM 34.0505 -96.5307 13° North  Level FlightAware Approximate
12:54PM 34.1030 -96.5158 13° North  Level FlightAware Approximate
12:55PM 34.1549 -96.5010 13° North  Level FlightAware Approximate
12:56PM 34.2068 -96.4862 13° North  Level FlightAware Approximate
12:57PM 34.2588 -96.4714 13° North  Level FlightAware Approximate
12:58PM 34.3107 -96.4566 13° North  Level FlightAware Approximate
12:59PM 34.3626 -96.4417 13° North  Level FlightAware Approximate
01:00PM 34.4141 -96.4270 13° North  Level FlightAware Approximate
01:01PM 34.4583 -96.4001 59° Northeast  Level FlightAware Approximate
01:01PM 35.4539 -96.1414 10° North 112 129 5,400  Level Kansas City Center
01:02PM 34.5020 -96.3716 15° North  Level FlightAware Approximate
01:02PM 35.4844 -96.1339 11° North 112 129 5,500  Level Kansas City Center
01:03PM 34.5530 -96.3546 15° North  Level FlightAware Approximate
01:04PM 34.6040 -96.3376 15° North  Level FlightAware Approximate
01:04PM 35.5211 -96.1247 12° North 113 130 5,400  Level Kansas City Center
01:05PM 34.6555 -96.3236 12° North  Level FlightAware Approximate
01:05PM 35.5525 -96.1172 11° North 115 132 5,600  Level Kansas City Center
01:06PM 34.7072 -96.3107 12° North  Level FlightAware Approximate
01:06PM 35.5822 -96.1050 18° North 114 131 5,600  Level Kansas City Center
01:07PM 34.7589 -96.2980 10° North  Level FlightAware Approximate
01:07PM 35.6111 -96.0944 17° North 110 127 5,500  Level Kansas City Center
01:07PM 35.6272 -96.0911 10° North 111 128 5,600  Climbing Kansas City Center
01:08PM 35.6408 -96.0869 14° North 110 127 5,500 -120 Descending Kansas City Center
01:08PM 35.6581 -96.0844 North 111 128 5,500  Level Kansas City Center
01:09PM 35.6786 -96.0794 11° North 112 129 5,500 60 Level Kansas City Center
01:09PM 35.6911 -96.0778 North 112 129 5,600  Climbing Kansas City Center
01:10PM 35.7178 -96.0692 15° North 111 128 5,500  Descending Kansas City Center
01:11PM 35.7464 -96.0606 14° North 113 130 5,600  Climbing Kansas City Center
01:12PM 35.7675 -96.0542 14° North 113 130 5,500 -120 Descending Kansas City Center
01:12PM 35.7811 -96.0508 11° North 111 128 5,500 60 Level Kansas City Center
01:13PM 35.8042 -96.0467 North 112 129 5,600 -60 Climbing Kansas City Center
01:14PM 35.8353 -96.0467 360° North 111 128 5,400 -480 Descending Kansas City Center
01:15PM 35.8639 -96.0444 North 107 123 4,700 -720 Descending Kansas City Center
01:15PM 35.8792 -96.0436 North 104 120 4,400 -720 Descending Kansas City Center
01:16PM 35.8928 -96.0428 North 105 121 4,000 -600 Descending Kansas City Center
01:16PM 35.9047 -96.0481 340° North 109 125 3,800 -420 Descending Kansas City Center
01:17PM 35.9097 -96.0600 297° West 107 123 3,600 -540 Descending Kansas City Center
01:18PM 35.9350 -96.0828 324° Northwest 107 123 3,000 -360 Descending Kansas City Center
01:19PM 35.9644 -96.0844 357° North 112 129 2,900 -300 Descending Kansas City Center
01:20PM 35.9856 -96.0611 42° Northeast 111 128 2,500 -540 Descending Kansas City Center
01:21PM 36.0058 -96.0292 52° Northeast 111 128 1,800 -360 Descending Kansas City Center
01:22PM 36.0228 -96.0047 49° Northeast 101 116 1,800  Level Kansas City Center
01:23PM 36.0517 -96.0008 North 102 117 1,800 -300 Level Kansas City Center
01:24PM 36.0608 -95.9842 56° Northeast 75 86 1,300 -420 Descending Kansas City Center
01:25PM 36.0317 -95.9897 189° South 88 101 1,000 -240 Descending Kansas City Center